sensor_id;sensor_type;location;lat;lon;timestamp;pressure;altitude;pressure_sealevel;temperature;humidity
62122;BME280;48108;47.532;19.084;2022-12-20T04:50:11;102073.91;;;-1.79;100.00
62122;BME280;48108;47.532;19.084;2022-12-20T04:53:16;102069.66;;;-1.83;100.00
62122;BME280;48108;47.532;19.084;2022-12-20T04:56:37;102073.97;;;-1.80;100.00
62122;BME280;48108;47.532;19.084;2022-12-20T04:59:41;102079.19;;;-1.79;100.00
62122;BME280;48108;47.532;19.084;2022-12-20T05:02:45;102079.59;;;-1.90;100.00
62122;BME280;48108;47.532;19.084;2022-12-20T05:05:49;102079.53;;;-1.88;100.00
62122;BME280;48108;47.532;19.084;2022-12-20T05:08:51;102076.06;;;-1.90;100.00
62122;BME280;48108;47.532;19.084;2022-12-20T05:11:56;102091.03;;;-1.91;100.00
62122;BME280;48108;47.532;19.084;2022-12-20T05:14:59;102088.97;;;-1.81;100.00
62122;BME280;48108;47.532;19.084;2022-12-20T05:18:02;102090.94;;;-1.88;100.00
62122;BME280;48108;47.532;19.084;2022-12-20T05:21:06;102092.84;;;-1.91;100.00
62122;BME280;48108;47.532;19.084;2022-12-20T05:24:29;102091.13;;;-1.92;100.00
62122;BME280;48108;47.532;19.084;2022-12-20T05:27:51;102100.94;;;-1.96;100.00
62122;BME280;48108;47.532;19.084;2022-12-20T05:30:56;102102.91;;;-2.02;100.00
62122;BME280;48108;47.532;19.084;2022-12-20T05:33:59;102098.78;;;-2.10;100.00
62122;BME280;48108;47.532;19.084;2022-12-20T05:37:03;102099.31;;;-2.00;100.00
62122;BME280;48108;47.532;19.084;2022-12-20T05:40:07;102093.38;;;-2.07;100.00
62122;BME280;48108;47.532;19.084;2022-12-20T05:43:10;102100.38;;;-2.06;100.00
62122;BME280;48108;47.532;19.084;2022-12-20T05:46:13;102103.12;;;-2.09;100.00
62122;BME280;48108;47.532;19.084;2022-12-20T05:49:18;102094.13;;;-2.03;100.00
62122;BME280;48108;47.532;19.084;2022-12-20T05:52:21;102092.41;;;-2.04;100.00
62122;BME280;48108;47.532;19.084;2022-12-20T05:55:24;102095.22;;;-2.09;100.00
62122;BME280;48108;47.532;19.084;2022-12-20T05:58:27;102098.13;;;-2.16;100.00
62122;BME280;48108;47.532;19.084;2022-12-20T06:01:31;102082.50;;;-2.22;100.00
62122;BME280;48108;47.532;19.084;2022-12-20T06:04:36;102074.66;;;-2.24;100.00
62122;BME280;48108;47.532;19.084;2022-12-20T06:07:40;102067.78;;;-2.28;100.00
62122;BME280;48108;47.532;19.084;2022-12-20T06:10:43;102057.00;;;-2.22;100.00
62122;BME280;48108;47.532;19.084;2022-12-20T06:13:48;102055.25;;;-2.23;100.00
62122;BME280;48108;47.532;19.084;2022-12-20T06:16:52;102053.47;;;-2.22;100.00
62122;BME280;48108;47.532;19.084;2022-12-20T06:19:56;102050.16;;;-2.28;100.00
62122;BME280;48108;47.532;19.084;2022-12-20T06:23:02;102050.41;;;-2.35;100.00
62122;BME280;48108;47.532;19.084;2022-12-20T06:26:07;102054.00;;;-2.36;100.00
62122;BME280;48108;47.532;19.084;2022-12-20T06:29:13;102051.44;;;-2.39;100.00
62122;BME280;48108;47.532;19.084;2022-12-20T06:32:19;102049.72;;;-2.40;100.00
62122;BME280;48108;47.532;19.084;2022-12-20T06:35:23;102051.38;;;-2.38;100.00
62122;BME280;48108;47.532;19.084;2022-12-20T06:38:27;102048.94;;;-2.42;100.00
62122;BME280;48108;47.532;19.084;2022-12-20T06:41:30;102041.00;;;-2.42;100.00
62122;BME280;48108;47.532;19.084;2022-12-20T06:44:33;102039.97;;;-2.38;100.00
62122;BME280;48108;47.532;19.084;2022-12-20T06:47:36;102032.03;;;-2.37;100.00
62122;BME280;48108;47.532;19.084;2022-12-20T06:50:39;102036.47;;;-2.39;100.00
62122;BME280;48108;47.532;19.084;2022-12-20T06:53:42;102029.38;;;-2.37;100.00
62122;BME280;48108;47.532;19.084;2022-12-20T06:56:44;102035.41;;;-2.33;100.00
62122;BME280;48108;47.532;19.084;2022-12-20T06:59:49;102020.81;;;-2.18;100.00
62122;BME280;48108;47.532;19.084;2022-12-20T07:02:51;102018.09;;;-2.17;100.00
62122;BME280;48108;47.532;19.084;2022-12-20T07:05:55;102016.13;;;-2.10;100.00
62122;BME280;48108;47.532;19.084;2022-12-20T07:08:57;102018.41;;;-2.01;100.00
62122;BME280;48108;47.532;19.084;2022-12-20T07:12:00;102022.41;;;-1.91;100.00
62122;BME280;48108;47.532;19.084;2022-12-20T07:15:03;102011.31;;;-1.75;100.00
62122;BME280;48108;47.532;19.084;2022-12-20T07:18:06;102012.16;;;-1.75;100.00
62122;BME280;48108;47.532;19.084;2022-12-20T07:21:09;102015.31;;;-1.65;100.00
62122;BME280;48108;47.532;19.084;2022-12-20T07:24:12;102027.16;;;-1.53;100.00
62122;BME280;48108;47.532;19.084;2022-12-20T07:27:15;102029.94;;;-1.56;100.00
62122;BME280;48108;47.532;19.084;2022-12-20T07:30:18;102020.34;;;-1.59;100.00
62122;BME280;48108;47.532;19.084;2022-12-20T07:33:22;102032.09;;;-1.44;100.00
62122;BME280;48108;47.532;19.084;2022-12-20T07:36:27;102044.34;;;-1.20;100.00
62122;BME280;48108;47.532;19.084;2022-12-20T07:39:30;102043.34;;;-1.17;100.00
62122;BME280;48108;47.532;19.084;2022-12-20T07:42:33;102038.88;;;-1.15;100.00
62122;BME280;48108;47.532;19.084;2022-12-20T07:45:42;102026.59;;;-1.16;100.00
62122;BME280;48108;47.532;19.084;2022-12-20T07:48:45;102024.00;;;-1.18;100.00
62122;BME280;48108;47.532;19.084;2022-12-20T07:51:51;102026.47;;;-1.13;100.00
62122;BME280;48108;47.532;19.084;2022-12-20T07:55:00;102024.91;;;-1.19;100.00
62122;BME280;48108;47.532;19.084;2022-12-20T07:58:07;102025.22;;;-1.04;100.00
62122;BME280;48108;47.532;19.084;2022-12-20T08:01:11;102033.03;;;-1.01;100.00
62122;BME280;48108;47.532;19.084;2022-12-20T08:04:19;102027.22;;;-0.89;100.00
62122;BME280;48108;47.532;19.084;2022-12-20T08:07:23;102017.25;;;-0.82;100.00
62122;BME280;48108;47.532;19.084;2022-12-20T08:10:26;102005.50;;;-0.96;100.00
62122;BME280;48108;47.532;19.084;2022-12-20T08:13:31;101994.31;;;-1.02;100.00
62122;BME280;48108;47.532;19.084;2022-12-20T08:16:34;101994.41;;;-1.05;100.00
62122;BME280;48108;47.532;19.084;2022-12-20T08:19:36;101996.41;;;-1.10;100.00
62122;BME280;48108;47.532;19.084;2022-12-20T08:22:40;101986.94;;;-1.16;100.00
62122;BME280;48108;47.532;19.084;2022-12-20T08:25:43;101975.91;;;-1.05;100.00
62122;BME280;48108;47.532;19.084;2022-12-20T08:28:46;101977.53;;;-1.01;100.00
62122;BME280;48108;47.532;19.084;2022-12-20T08:31:48;101977.12;;;-0.92;100.00
62122;BME280;48108;47.532;19.084;2022-12-20T08:34:52;101981.69;;;-0.96;100.00
62122;BME280;48108;47.532;19.084;2022-12-20T08:37:55;101990.81;;;-0.82;100.00
62122;BME280;48108;47.532;19.084;2022-12-20T08:41:08;101988.84;;;-0.57;100.00
62122;BME280;48108;47.532;19.084;2022-12-20T08:44:12;101980.19;;;-0.40;100.00
62122;BME280;48108;47.532;19.084;2022-12-20T08:47:15;101982.78;;;-0.19;100.00
62122;BME280;48108;47.532;19.084;2022-12-20T08:50:17;101979.69;;;-0.09;100.00
62122;BME280;48108;47.532;19.084;2022-12-20T08:53:21;101981.75;;;0.04;100.00
62122;BME280;48108;47.532;19.084;2022-12-20T08:56:24;101975.38;;;0.08;100.00
62122;BME280;48108;47.532;19.084;2022-12-20T08:59:27;101962.16;;;0.27;100.00
62122;BME280;48108;47.532;19.084;2022-12-20T09:02:30;101966.09;;;0.18;100.00
62122;BME280;48108;47.532;19.084;2022-12-20T09:05:33;101977.94;;;0.28;100.00
62122;BME280;48108;47.532;19.084;2022-12-20T09:08:38;101987.03;;;0.22;99.35
62122;BME280;48108;47.532;19.084;2022-12-20T09:11:41;101968.22;;;0.29;99.94
62122;BME280;48108;47.532;19.084;2022-12-20T09:14:44;101965.72;;;0.44;98.14
62122;BME280;48108;47.532;19.084;2022-12-20T09:17:46;101970.62;;;0.52;98.48
62122;BME280;48108;47.532;19.084;2022-12-20T09:20:49;101975.25;;;0.66;97.06
62122;BME280;48108;47.532;19.084;2022-12-20T09:23:54;101974.97;;;0.72;95.76
62122;BME280;48108;47.532;19.084;2022-12-20T09:26:57;101968.59;;;0.94;94.91
62122;BME280;48108;47.532;19.084;2022-12-20T09:30:00;101963.53;;;1.06;94.36
62122;BME280;48108;47.532;19.084;2022-12-20T09:33:03;101959.31;;;1.02;94.11
62122;BME280;48108;47.532;19.084;2022-12-20T09:36:22;101956.81;;;1.17;94.22
62122;BME280;48108;47.532;19.084;2022-12-20T09:39:25;101951.13;;;1.24;92.33
62122;BME280;48108;47.532;19.084;2022-12-20T09:42:28;101938.19;;;1.01;92.33
62122;BME280;48108;47.532;19.084;2022-12-20T09:45:34;101927.91;;;0.95;93.83
62122;BME280;48108;47.532;19.084;2022-12-20T09:48:39;101933.19;;;0.95;92.32
62122;BME280;48108;47.532;19.084;2022-12-20T09:55:46;101919.09;;;0.77;94.56
62122;BME280;48108;47.532;19.084;2022-12-20T09:59:05;101923.38;;;0.79;93.44
62122;BME280;48108;47.532;19.084;2022-12-20T10:02:15;101924.06;;;0.83;93.85
62122;BME280;48108;47.532;19.084;2022-12-20T10:08:58;101909.19;;;0.98;93.28
62122;BME280;48108;47.532;19.084;2022-12-20T10:15:48;101904.56;;;1.19;92.75
62122;BME280;48108;47.532;19.084;2022-12-20T10:22:07;101892.72;;;1.08;92.46
62122;BME280;48108;47.532;19.084;2022-12-20T10:25:17;101878.19;;;1.16;91.94
62122;BME280;48108;47.532;19.084;2022-12-20T10:28:25;101881.16;;;1.27;91.37
62122;BME280;48108;47.532;19.084;2022-12-20T10:31:29;101878.19;;;1.49;90.28
62122;BME280;48108;47.532;19.084;2022-12-20T10:34:32;101868.19;;;1.54;89.62
62122;BME280;48108;47.532;19.084;2022-12-20T10:38:01;101862.88;;;1.54;89.62
62122;BME280;48108;47.532;19.084;2022-12-20T10:41:15;101850.59;;;2.00;87.30
62122;BME280;48108;47.532;19.084;2022-12-20T10:44:26;101846.41;;;2.42;85.78
62122;BME280;48108;47.532;19.084;2022-12-20T10:47:40;101844.91;;;2.83;83.71
62122;BME280;48108;47.532;19.084;2022-12-20T10:54:01;101844.38;;;2.92;82.00
62122;BME280;48108;47.532;19.084;2022-12-20T10:57:25;101846.47;;;2.87;81.46
62122;BME280;48108;47.532;19.084;2022-12-20T11:00:29;101815.38;;;2.73;80.55
62122;BME280;48108;47.532;19.084;2022-12-20T11:06:52;101808.59;;;2.07;84.54
62122;BME280;48108;47.532;19.084;2022-12-20T11:09:58;101804.81;;;2.11;84.76
62122;BME280;48108;47.532;19.084;2022-12-20T11:13:02;101807.47;;;2.11;83.83
62122;BME280;48108;47.532;19.084;2022-12-20T11:16:05;101801.81;;;2.17;85.55
62122;BME280;48108;47.532;19.084;2022-12-20T11:22:55;101789.03;;;2.24;84.40
62122;BME280;48108;47.532;19.084;2022-12-20T11:29:36;101789.63;;;2.73;81.26
62122;BME280;48108;47.532;19.084;2022-12-20T11:36:04;101760.47;;;2.72;80.46
62122;BME280;48108;47.532;19.084;2022-12-20T11:39:33;101758.47;;;2.61;81.38
62122;BME280;48108;47.532;19.084;2022-12-20T11:43:17;101754.22;;;2.73;82.15
62122;BME280;48108;47.532;19.084;2022-12-20T11:53:24;101748.13;;;3.43;79.77
62122;BME280;48108;47.532;19.084;2022-12-20T11:56:36;101751.44;;;4.00;76.32
62122;BME280;48108;47.532;19.084;2022-12-20T11:59:50;101754.41;;;4.36;74.93
62122;BME280;48108;47.532;19.084;2022-12-20T12:06:14;101746.34;;;5.01;69.85
62122;BME280;48108;47.532;19.084;2022-12-20T12:12:39;101739.78;;;4.16;74.14
62122;BME280;48108;47.532;19.084;2022-12-20T12:18:50;101730.66;;;5.59;68.64
62122;BME280;48108;47.532;19.084;2022-12-20T12:22:02;101724.94;;;5.39;67.65
62122;BME280;48108;47.532;19.084;2022-12-20T12:25:13;101725.13;;;4.61;69.86
62122;BME280;48108;47.532;19.084;2022-12-20T12:28:19;101722.19;;;4.39;72.89
62122;BME280;48108;47.532;19.084;2022-12-20T12:35:02;101716.81;;;4.66;70.05
62122;BME280;48108;47.532;19.084;2022-12-20T12:44:50;101694.06;;;3.95;74.61
62122;BME280;48108;47.532;19.084;2022-12-20T12:47:58;101690.75;;;3.78;74.03
62122;BME280;48108;47.532;19.084;2022-12-20T12:51:04;101695.81;;;3.41;76.34
62122;BME280;48108;47.532;19.084;2022-12-20T12:54:27;101697.31;;;3.04;78.04
62122;BME280;48108;47.532;19.084;2022-12-20T12:57:54;101692.00;;;2.90;79.95
62122;BME280;48108;47.532;19.084;2022-12-20T13:01:01;101690.84;;;2.94;79.59
62122;BME280;48108;47.532;19.084;2022-12-20T13:04:20;101694.81;;;3.01;79.24
62122;BME280;48108;47.532;19.084;2022-12-20T13:13:40;101688.50;;;2.75;80.47
62122;BME280;48108;47.532;19.084;2022-12-20T13:16:43;101676.22;;;2.44;82.66
62122;BME280;48108;47.532;19.084;2022-12-20T13:20:17;101686.00;;;2.43;83.71
62122;BME280;48108;47.532;19.084;2022-12-20T13:23:20;101675.94;;;2.48;82.92
62122;BME280;48108;47.532;19.084;2022-12-20T13:26:42;101675.78;;;2.52;83.17
62122;BME280;48108;47.532;19.084;2022-12-20T13:36:33;101664.91;;;2.26;83.26
62122;BME280;48108;47.532;19.084;2022-12-20T13:39:36;101659.22;;;2.32;83.14
62122;BME280;48108;47.532;19.084;2022-12-20T13:42:39;101658.62;;;2.27;83.87
62122;BME280;48108;47.532;19.084;2022-12-20T13:45:46;101661.75;;;2.19;83.79
62122;BME280;48108;47.532;19.084;2022-12-20T13:48:52;101664.84;;;1.97;85.60
62122;BME280;48108;47.532;19.084;2022-12-20T13:55:32;101653.84;;;2.03;86.09
62122;BME280;48108;47.532;19.084;2022-12-20T13:58:35;101649.12;;;2.09;86.41
62122;BME280;48108;47.532;19.084;2022-12-20T14:01:52;101650.25;;;2.04;86.61
62122;BME280;48108;47.532;19.084;2022-12-20T14:05:00;101634.31;;;1.90;87.62
62122;BME280;48108;47.532;19.084;2022-12-20T14:08:15;101628.50;;;1.98;86.84
62122;BME280;48108;47.532;19.084;2022-12-20T14:11:24;101622.66;;;2.07;86.30
62122;BME280;48108;47.532;19.084;2022-12-20T14:14:36;101624.91;;;1.99;86.03
62122;BME280;48108;47.532;19.084;2022-12-20T14:17:39;101620.44;;;1.85;87.71
62122;BME280;48108;47.532;19.084;2022-12-20T14:20:54;101620.56;;;1.68;90.62
62122;BME280;48108;47.532;19.084;2022-12-20T14:24:00;101625.03;;;1.51;92.93
62122;BME280;48108;47.532;19.084;2022-12-20T14:27:03;101627.56;;;1.39;94.39
62122;BME280;48108;47.532;19.084;2022-12-20T14:30:25;101624.06;;;1.22;96.38
62122;BME280;48108;47.532;19.084;2022-12-20T14:36:35;101619.81;;;0.88;99.12
62122;BME280;48108;47.532;19.084;2022-12-20T14:43:24;101601.41;;;0.69;100.00
62122;BME280;48108;47.532;19.084;2022-12-20T14:46:29;101602.16;;;0.55;100.00
62122;BME280;48108;47.532;19.084;2022-12-20T14:49:36;101605.75;;;0.54;100.00
62122;BME280;48108;47.532;19.084;2022-12-20T14:52:40;101594.19;;;0.55;100.00
62122;BME280;48108;47.532;19.084;2022-12-20T14:55:45;101600.53;;;0.53;100.00
62122;BME280;48108;47.532;19.084;2022-12-20T14:59:22;101595.31;;;0.51;100.00
62122;BME280;48108;47.532;19.084;2022-12-20T15:02:39;101596.25;;;0.50;100.00
62122;BME280;48108;47.532;19.084;2022-12-20T15:05:49;101606.66;;;0.37;100.00
62122;BME280;48108;47.532;19.084;2022-12-20T15:08:52;101608.59;;;0.34;100.00
62122;BME280;48108;47.532;19.084;2022-12-20T15:11:56;101610.41;;;0.33;100.00
62122;BME280;48108;47.532;19.084;2022-12-20T15:14:59;101607.25;;;0.27;100.00
62122;BME280;48108;47.532;19.084;2022-12-20T15:18:23;101598.25;;;0.29;100.00
62122;BME280;48108;47.532;19.084;2022-12-20T15:21:33;101599.97;;;0.30;100.00
62122;BME280;48108;47.532;19.084;2022-12-20T15:24:37;101593.09;;;0.26;100.00
62122;BME280;48108;47.532;19.084;2022-12-20T15:27:40;101598.19;;;0.31;100.00
62122;BME280;48108;47.532;19.084;2022-12-20T15:30:44;101582.50;;;0.26;100.00
62122;BME280;48108;47.532;19.084;2022-12-20T15:33:48;101595.06;;;0.22;100.00
62122;BME280;48108;47.532;19.084;2022-12-20T15:36:52;101601.38;;;0.20;100.00
62122;BME280;48108;47.532;19.084;2022-12-20T15:39:55;101606.25;;;0.12;100.00
62122;BME280;48108;47.532;19.084;2022-12-20T15:42:58;101614.31;;;0.09;100.00
62122;BME280;48108;47.532;19.084;2022-12-20T15:46:01;101611.69;;;0.09;100.00
62122;BME280;48108;47.532;19.084;2022-12-20T15:49:03;101619.78;;;0.06;100.00
62122;BME280;48108;47.532;19.084;2022-12-20T15:52:11;101616.91;;;0.10;100.00
62122;BME280;48108;47.532;19.084;2022-12-20T15:55:17;101625.34;;;0.01;100.00
62122;BME280;48108;47.532;19.084;2022-12-20T15:58:21;101617.63;;;-0.04;100.00
62122;BME280;48108;47.532;19.084;2022-12-20T16:01:28;101615.81;;;-0.03;100.00
62122;BME280;48108;47.532;19.084;2022-12-20T16:04:42;101617.91;;;0.08;100.00
62122;BME280;48108;47.532;19.084;2022-12-20T16:07:44;101611.00;;;0.05;100.00
62122;BME280;48108;47.532;19.084;2022-12-20T16:10:50;101599.94;;;-0.03;100.00
62122;BME280;48108;47.532;19.084;2022-12-20T16:13:54;101597.38;;;-0.05;100.00
62122;BME280;48108;47.532;19.084;2022-12-20T16:16:57;101608.75;;;-0.03;100.00
62122;BME280;48108;47.532;19.084;2022-12-20T16:20:00;101613.72;;;0.04;100.00
62122;BME280;48108;47.532;19.084;2022-12-20T16:23:04;101614.13;;;-0.04;100.00
62122;BME280;48108;47.532;19.084;2022-12-20T16:26:14;101614.28;;;-0.07;100.00
62122;BME280;48108;47.532;19.084;2022-12-20T16:29:17;101609.69;;;-0.04;100.00
62122;BME280;48108;47.532;19.084;2022-12-20T16:32:20;101595.06;;;-0.11;100.00
62122;BME280;48108;47.532;19.084;2022-12-20T16:35:34;101600.25;;;-0.09;100.00
62122;BME280;48108;47.532;19.084;2022-12-20T16:38:38;101598.34;;;-0.06;100.00
62122;BME280;48108;47.532;19.084;2022-12-20T16:41:43;101599.19;;;-0.05;100.00
62122;BME280;48108;47.532;19.084;2022-12-20T16:44:50;101593.78;;;-0.04;100.00
62122;BME280;48108;47.532;19.084;2022-12-20T16:47:53;101587.75;;;-0.06;100.00
62122;BME280;48108;47.532;19.084;2022-12-20T16:50:57;101594.28;;;-0.13;100.00
62122;BME280;48108;47.532;19.084;2022-12-20T16:54:02;101596.28;;;-0.18;100.00
62122;BME280;48108;47.532;19.084;2022-12-20T16:57:21;101593.75;;;-0.19;100.00
